Time;durP1;ratioP1;P1;durP2;ratioP2;P2;SDS_P1;SDS_P2;PMS_P1;PMS_P2;Temp;Humidity;BMP_temperature;BMP_pressure;BME280_temperature;BME280_humidity;BME280_pressure;Samples;Min_cycle;Max_cycle;Signal;HPM_P1;HPM_P2
2022/07/16 00:03:13;;;;;;;;;;;;;;;13.90;69.37;100854.91;6157575;23;1940;-85
2022/07/16 00:05:38;;;;;;;;;;;;;;;13.81;70.60;100848.41;6156387;23;1260;-85
2022/07/16 00:08:04;;;;;;;;;;;;;;;14.09;68.92;100841.19;6156047;23;1034;-85
2022/07/16 00:10:29;;;;;;;;;;;;;;;13.87;69.75;100844.47;6155630;23;1121;-85
2022/07/16 00:12:54;;;;;;;;;;;;;;;14.02;69.37;100847.06;6155456;23;1129;-85
2022/07/16 00:15:19;;;;;;;;;;;;;;;14.00;68.32;100844.59;6155169;23;1280;-85
2022/07/16 00:17:44;;;;;;;;;;;;;;;13.83;70.00;100837.94;6155631;23;1125;-85
2022/07/16 00:20:10;;;;;;;;;;;;;;;13.83;69.16;100844.25;6155860;23;862;-85
2022/07/16 00:22:36;;;;;;;;;;;;;;;13.94;69.85;100844.97;6155704;23;1948;-84
2022/07/16 00:25:01;;;;;;;;;;;;;;;13.61;70.51;100841.19;6156520;23;1216;-85
2022/07/16 00:27:26;;;;;;;;;;;;;;;13.60;70.06;100840.41;6157110;23;893;-85
2022/07/16 00:29:52;;;;;;;;;;;;;;;13.70;70.12;100844.13;6155723;23;1051;-85
2022/07/16 00:32:18;;;;;;;;;;;;;;;13.61;70.09;100842.03;6157153;23;1212;-85
2022/07/16 00:34:43;;;;;;;;;;;;;;;13.61;68.65;100839.28;6156727;23;1184;-85
2022/07/16 00:37:08;;;;;;;;;;;;;;;13.59;69.40;100844.28;6156306;23;1040;-85
2022/07/16 00:39:33;;;;;;;;;;;;;;;13.52;69.05;100831.97;6158489;23;1013;-85
2022/07/16 00:41:58;;;;;;;;;;;;;;;13.42;70.52;100832.09;6157054;23;1932;-84
2022/07/16 00:44:23;;;;;;;;;;;;;;;13.59;69.44;100844.28;6155638;23;1255;-85
2022/07/16 00:46:49;;;;;;;;;;;;;;;13.62;69.07;100837.34;6155953;23;1048;-85
2022/07/16 00:49:15;;;;;;;;;;;;;;;13.62;69.47;100835.41;6154972;23;1374;-84
2022/07/16 00:51:42;;;;;;;;;;;;;;;13.51;69.33;100833.09;6157910;23;794;-85
2022/07/16 00:54:07;;;;;;;;;;;;;;;13.51;69.46;100833.09;6156275;23;1266;-85
2022/07/16 00:56:32;;;;;;;;;;;;;;;13.48;69.37;100833.66;6157324;23;1272;-84
2022/07/16 00:58:58;;;;;;;;;;;;;;;13.13;70.97;100827.41;6155958;23;1047;-85
2022/07/16 01:01:23;;;;;;;;;;;;;;;13.35;71.29;100837.13;6155023;23;1881;-84
2022/07/16 01:03:48;;;;;;;;;;;;;;;13.27;70.26;100830.28;6153960;23;1300;-85
2022/07/16 01:06:14;;;;;;;;;;;;;;;13.43;70.80;100830.97;6153964;23;1140;-85
2022/07/16 01:08:41;;;;;;;;;;;;;;;13.34;70.41;100827.22;6154002;23;1160;-84
2022/07/16 01:11:08;;;;;;;;;;;;;;;13.20;71.01;100830.63;6155220;23;969;-84
2022/07/16 01:13:34;;;;;;;;;;;;;;;13.26;71.22;100823.19;6156192;23;1255;-85
2022/07/16 01:15:59;;;;;;;;;;;;;;;13.21;71.71;100821.28;6154227;23;1189;-84
2022/07/16 01:18:24;;;;;;;;;;;;;;;13.40;71.11;100823.31;6156085;23;969;-85
2022/07/16 01:20:49;;;;;;;;;;;;;;;13.46;71.19;100827.63;6156111;23;981;-84
2022/07/16 01:23:17;;;;;;;;;;;;;;;13.51;70.21;100828.41;6155087;23;1913;-84
2022/07/16 01:25:42;;;;;;;;;;;;;;;13.44;71.62;100832.63;6154543;23;1197;-84
2022/07/16 01:28:07;;;;;;;;;;;;;;;13.44;71.30;100830.66;6154393;23;886;-85
2022/07/16 01:30:33;;;;;;;;;;;;;;;13.28;71.82;100831.94;6154175;23;993;-85
2022/07/16 01:32:58;;;;;;;;;;;;;;;13.24;71.62;100834.47;6153522;23;958;-87
2022/07/16 01:35:23;;;;;;;;;;;;;;;13.25;72.41;100832.53;6155629;23;1180;-87
2022/07/16 01:37:48;;;;;;;;;;;;;;;13.44;71.68;100835.38;6155407;23;973;-87
2022/07/16 01:40:13;;;;;;;;;;;;;;;13.46;71.13;100827.63;6157965;23;1012;-87
2022/07/16 01:42:38;;;;;;;;;;;;;;;13.37;71.39;100830.19;6156731;23;1926;-87
2022/07/16 01:45:04;;;;;;;;;;;;;;;13.36;71.68;100828.56;6157086;23;1200;-87
2022/07/16 01:47:29;;;;;;;;;;;;;;;13.36;72.33;100830.47;6155975;23;1259;-87
2022/07/16 01:49:54;;;;;;;;;;;;;;;13.21;72.37;100828.72;6154979;23;695;-87
2022/07/16 01:52:20;;;;;;;;;;;;;;;13.43;72.88;100818.06;6155387;23;1189;-87
2022/07/16 01:54:50;;;;;;;;;;;;;;;13.41;72.56;100820.25;6154777;23;1269;-86
2022/07/16 01:57:15;;;;;;;;;;;;;;;13.29;73.83;100827.25;6157745;23;866;-87
2022/07/16 01:59:41;;;;;;;;;;;;;;;13.33;73.21;100818.16;6156570;23;1479;-87
2022/07/16 02:02:06;;;;;;;;;;;;;;;13.21;73.19;100818.53;6157208;23;1918;-88
2022/07/16 02:04:32;;;;;;;;;;;;;;;13.35;74.33;100821.44;6155105;23;1334;-87
2022/07/16 02:06:57;;;;;;;;;;;;;;;13.49;73.69;100816.88;6155871;23;786;-87
2022/07/16 02:09:22;;;;;;;;;;;;;;;13.37;73.14;100812.88;6156827;23;992;-87
2022/07/16 02:11:47;;;;;;;;;;;;;;;13.35;73.49;100810.44;6155908;23;786;-87
2022/07/16 02:14:12;;;;;;;;;;;;;;;13.41;72.98;100812.00;6157370;23;3573;-85
2022/07/16 02:16:38;;;;;;;;;;;;;;;13.51;73.39;100817.41;6162583;23;953;-86
2022/07/16 02:19:03;;;;;;;;;;;;;;;13.51;73.86;100794.59;6163162;23;1016;-85
2022/07/16 02:21:29;;;;;;;;;;;;;;;13.50;73.23;100809.44;6160901;23;1892;-84
2022/07/16 02:23:54;;;;;;;;;;;;;;;13.29;74.54;100808.00;6160422;23;1182;-85
2022/07/16 02:26:19;;;;;;;;;;;;;;;13.44;74.61;100807.88;6163841;23;897;-84
2022/07/16 02:28:45;;;;;;;;;;;;;;;13.43;74.00;100801.56;6163846;23;1175;-85
2022/07/16 02:31:10;;;;;;;;;;;;;;;13.44;74.08;100808.66;6164584;23;1477;-85
2022/07/16 02:33:35;;;;;;;;;;;;;;;13.47;73.81;100810.84;6165047;23;860;-85
2022/07/16 02:36:00;;;;;;;;;;;;;;;13.48;74.34;100817.16;6163924;23;1280;-86
2022/07/16 02:38:25;;;;;;;;;;;;;;;13.46;73.71;100816.63;6165099;23;1062;-84
2022/07/16 02:40:50;;;;;;;;;;;;;;;13.44;74.57;100811.41;6164426;23;1012;-85
2022/07/16 02:43:16;;;;;;;;;;;;;;;13.39;74.10;100818.91;6164028;23;1917;-85
2022/07/16 02:45:41;;;;;;;;;;;;;;;13.39;73.41;100813.41;6164040;23;1173;-85
2022/07/16 02:48:07;;;;;;;;;;;;;;;13.39;74.40;100818.91;6165076;23;794;-84
2022/07/16 02:50:32;;;;;;;;;;;;;;;13.41;74.53;100813.94;6166282;23;941;-85
2022/07/16 02:52:58;;;;;;;;;;;;;;;13.31;75.42;100806.63;6164848;23;1157;-87
2022/07/16 02:55:23;;;;;;;;;;;;;;;13.27;75.78;100807.50;6163511;23;1196;-84
2022/07/16 02:57:48;;;;;;;;;;;;;;;13.36;74.98;100808.47;6166669;23;822;-85
2022/07/16 03:00:15;;;;;;;;;;;;;;;13.37;76.19;100812.88;6163071;23;1011;-85
2022/07/16 03:02:40;;;;;;;;;;;;;;;13.43;75.80;100806.22;6162735;23;1889;-84
2022/07/16 03:05:07;;;;;;;;;;;;;;;13.44;76.23;100807.88;6161942;23;1201;-85
2022/07/16 03:07:32;;;;;;;;;;;;;;;13.46;76.85;100795.44;6159489;23;1172;-85
2022/07/16 03:09:57;;;;;;;;;;;;;;;13.38;77.45;100806.25;6160239;23;1199;-85
2022/07/16 03:12:22;;;;;;;;;;;;;;;13.33;77.85;100811.84;6163815;23;996;-85
2022/07/16 03:14:47;;;;;;;;;;;;;;;13.30;77.73;100795.91;6161144;23;1269;-84
2022/07/16 03:17:13;;;;;;;;;;;;;;;13.44;76.86;100805.91;6161909;23;1001;-84
2022/07/16 03:19:38;;;;;;;;;;;;;;;13.49;76.44;100794.06;6162032;23;833;-85
2022/07/16 03:22:03;;;;;;;;;;;;;;;13.54;76.48;100797.56;6161622;23;1929;-86
2022/07/16 03:24:29;;;;;;;;;;;;;;;13.52;76.65;100794.31;6163285;23;1173;-83
2022/07/16 03:26:54;;;;;;;;;;;;;;;13.57;76.64;100794.22;6162830;23;1153;-85
2022/07/16 03:29:19;;;;;;;;;;;;;;;13.62;77.01;100798.84;6161208;23;1464;-86
2022/07/16 03:31:44;;;;;;;;;;;;;;;13.65;75.14;100795.50;6161810;23;810;-85
2022/07/16 03:34:09;;;;;;;;;;;;;;;13.73;74.83;100797.59;6158478;23;1258;-86
2022/07/16 03:36:35;;;;;;;;;;;;;;;13.79;74.95;100793.66;6163255;23;748;-84
2022/07/16 03:39:06;;;;;;;;;;;;;;;13.82;74.26;100795.03;6162375;23;783;-85
2022/07/16 03:41:32;;;;;;;;;;;;;;;13.77;73.21;100793.16;6163220;23;1928;-85
2022/07/16 03:43:58;;;;;;;;;;;;;;;13.78;72.08;100796.75;6160857;23;1181;-86
2022/07/16 03:46:23;;;;;;;;;;;;;;;13.78;71.21;100792.03;6163019;23;1269;-85
2022/07/16 03:48:48;;;;;;;;;;;;;;;13.80;71.56;100786.22;6166182;23;988;-86
2022/07/16 03:51:13;;;;;;;;;;;;;;;13.78;71.12;100786.53;6169678;23;1051;-84
2022/07/16 03:53:38;;;;;;;;;;;;;;;13.79;71.98;100788.16;6165182;23;1023;-85
2022/07/16 03:56:04;;;;;;;;;;;;;;;13.84;71.68;100790.03;6163020;23;1631;-84
2022/07/16 03:58:29;;;;;;;;;;;;;;;13.84;72.43;100785.38;6165579;23;1046;-85
2022/07/16 04:00:55;;;;;;;;;;;;;;;13.85;72.74;100789.75;6160554;23;1149;-85
2022/07/16 04:03:20;;;;;;;;;;;;;;;13.87;71.91;100789.44;6158619;23;1926;-85
2022/07/16 04:05:45;;;;;;;;;;;;;;;13.87;72.45;100790.25;6158408;23;1266;-85
2022/07/16 04:08:11;;;;;;;;;;;;;;;13.87;71.05;100787.50;6157451;23;1157;-85
2022/07/16 04:10:36;;;;;;;;;;;;;;;13.87;71.80;100787.50;6159673;23;1326;-84
2022/07/16 04:13:01;;;;;;;;;;;;;;;13.88;71.66;100785.56;6160856;23;777;-85
2022/07/16 04:15:26;;;;;;;;;;;;;;;13.90;71.57;100783.34;6159155;23;1193;-85
2022/07/16 04:17:52;;;;;;;;;;;;;;;13.91;72.19;100785.81;6159663;23;1475;-85
2022/07/16 04:20:17;;;;;;;;;;;;;;;13.96;71.98;100784.91;6160460;23;1116;-85
2022/07/16 04:22:42;;;;;;;;;;;;;;;13.95;71.96;100778.59;6162535;23;1885;-84
2022/07/16 04:25:07;;;;;;;;;;;;;;;13.94;71.85;100773.41;6161629;23;1261;-85
2022/07/16 04:27:32;;;;;;;;;;;;;;;13.96;72.20;100771.97;6161585;23;845;-86
2022/07/16 04:29:58;;;;;;;;;;;;;;;13.98;71.83;100768.94;6160708;23;1047;-85
2022/07/16 04:32:23;;;;;;;;;;;;;;;14.03;70.97;100777.94;6161273;23;854;-85
2022/07/16 04:34:48;;;;;;;;;;;;;;;14.05;71.46;100766.63;6159511;23;1301;-85
2022/07/16 04:37:13;;;;;;;;;;;;;;;14.04;71.53;100762.22;6159162;23;977;-86
2022/07/16 04:39:38;;;;;;;;;;;;;;;14.08;71.68;100766.03;6160826;23;758;-85
2022/07/16 04:42:04;;;;;;;;;;;;;;;14.07;71.30;100767.16;6160613;23;1880;-85
2022/07/16 04:44:29;;;;;;;;;;;;;;;14.09;71.93;100764.09;6159978;23;1198;-84
2022/07/16 04:46:54;;;;;;;;;;;;;;;14.08;71.50;100768.78;6161722;23;777;-85
2022/07/16 04:49:19;;;;;;;;;;;;;;;14.10;72.35;100769.31;6160423;23;940;-84
2022/07/16 04:51:44;;;;;;;;;;;;;;;14.09;72.20;100769.63;6163139;23;761;-84
2022/07/16 04:54:09;;;;;;;;;;;;;;;14.06;71.82;100764.69;6160519;23;1194;-85
2022/07/16 04:56:34;;;;;;;;;;;;;;;14.06;71.70;100770.19;6159446;23;1052;-85
2022/07/16 04:58:59;;;;;;;;;;;;;;;14.06;71.91;100781.22;6159794;23;918;-85
2022/07/16 05:01:25;;;;;;;;;;;;;;;14.05;72.82;100769.38;6160347;23;1881;-85
2022/07/16 05:03:50;;;;;;;;;;;;;;;14.06;72.81;100779.28;6155664;23;993;-84
2022/07/16 05:06:15;;;;;;;;;;;;;;;14.05;72.50;100780.38;6158115;23;1292;-83
2022/07/16 05:08:40;;;;;;;;;;;;;;;14.05;73.07;100783.13;6160255;23;920;-85
2022/07/16 05:11:05;;;;;;;;;;;;;;;14.05;72.36;100785.06;6158702;23;814;-85
2022/07/16 05:13:31;;;;;;;;;;;;;;;14.06;72.00;100794.97;6160534;23;1008;-85
2022/07/16 05:15:57;;;;;;;;;;;;;;;14.09;72.86;100791.63;6158528;23;1208;-85
2022/07/16 05:18:22;;;;;;;;;;;;;;;14.11;73.32;100797.66;6158081;23;1318;-85
2022/07/16 05:20:47;;;;;;;;;;;;;;;14.11;74.41;100792.16;6160263;23;1016;-85
2022/07/16 05:23:12;;;;;;;;;;;;;;;14.10;74.10;100799.59;6153735;23;1932;-85
2022/07/16 05:25:37;;;;;;;;;;;;;;;14.11;74.15;100795.75;6155214;23;1210;-85
2022/07/16 05:28:02;;;;;;;;;;;;;;;14.14;73.90;100786.88;6154624;23;894;-85
2022/07/16 05:30:28;;;;;;;;;;;;;;;14.12;74.02;100796.56;6155684;23;823;-85
2022/07/16 05:32:54;;;;;;;;;;;;;;;14.16;74.29;100798.41;6154780;23;1295;-86
2022/07/16 05:35:19;;;;;;;;;;;;;;;14.17;73.63;100802.81;6155629;23;1129;-86
2022/07/16 05:37:44;;;;;;;;;;;;;;;14.23;74.05;100795.28;6153884;23;961;-86
2022/07/16 05:40:10;;;;;;;;;;;;;;;14.25;73.80;100790.28;6154615;23;1320;-86
2022/07/16 05:42:35;;;;;;;;;;;;;;;14.32;75.22;100799.00;6153921;23;1881;-85
2022/07/16 05:45:00;;;;;;;;;;;;;;;14.38;75.49;100789.53;6153647;23;1302;-86
2022/07/16 05:47:25;;;;;;;;;;;;;;;14.43;73.01;100803.28;6154158;23;1235;-86
2022/07/16 05:49:50;;;;;;;;;;;;;;;14.59;72.81;100804.69;6154730;23;1285;-86
2022/07/16 05:52:16;;;;;;;;;;;;;;;14.66;73.21;100796.84;6154390;23;1036;-86
2022/07/16 05:54:41;;;;;;;;;;;;;;;14.79;74.08;100802.72;6154383;23;1187;-85
2022/07/16 05:57:06;;;;;;;;;;;;;;;14.87;73.42;100807.53;6157306;23;976;-86
2022/07/16 05:59:31;;;;;;;;;;;;;;;15.08;71.73;100811.56;6167922;23;1246;-85
2022/07/16 06:01:56;;;;;;;;;;;;;;;15.05;72.17;100814.94;6156478;23;1928;-85
2022/07/16 06:04:21;;;;;;;;;;;;;;;15.11;72.19;100811.78;6155552;23;1191;-85
2022/07/16 06:06:46;;;;;;;;;;;;;;;15.06;73.50;100816.56;6155441;23;1252;-86
2022/07/16 06:09:12;;;;;;;;;;;;;;;15.03;73.38;100823.50;6155299;23;953;-86
2022/07/16 06:11:38;;;;;;;;;;;;;;;15.00;74.38;100834.31;6158002;23;818;-85
2022/07/16 06:14:03;;;;;;;;;;;;;;;14.92;76.44;100835.00;6156607;23;1303;-86
2022/07/16 06:16:28;;;;;;;;;;;;;;;14.74;79.40;100854.03;6164359;23;1008;-86
2022/07/16 06:18:53;;;;;;;;;;;;;;;14.54;81.73;100867.31;6154778;23;1316;-86
2022/07/16 06:21:19;;;;;;;;;;;;;;;14.44;82.66;100868.28;6156210;23;922;-86
2022/07/16 06:23:44;;;;;;;;;;;;;;;14.28;85.24;100872.31;6158802;23;1930;-85
2022/07/16 06:26:09;;;;;;;;;;;;;;;14.12;85.83;100877.19;6160106;23;1193;-85
2022/07/16 06:28:34;;;;;;;;;;;;;;;14.14;87.30;100883.22;6161658;23;795;-85
2022/07/16 06:30:59;;;;;;;;;;;;;;;14.23;87.01;100886.97;6161096;23;868;-84
2022/07/16 06:33:25;;;;;;;;;;;;;;;14.23;86.36;100886.97;6161700;23;870;-85
2022/07/16 06:35:50;;;;;;;;;;;;;;;14.22;87.05;100890.00;6160986;23;1261;-84
2022/07/16 06:38:15;;;;;;;;;;;;;;;14.25;86.56;100886.66;6160961;23;830;-84
2022/07/16 06:40:41;;;;;;;;;;;;;;;14.30;86.93;100890.16;6160928;23;1055;-85
2022/07/16 06:43:06;;;;;;;;;;;;;;;14.34;86.91;100887.66;6160681;23;1888;-85
2022/07/16 06:45:32;;;;;;;;;;;;;;;14.40;86.95;100883.72;6161500;23;1183;-85
2022/07/16 06:47:57;;;;;;;;;;;;;;;14.34;87.81;100888.47;6161705;23;853;-87
2022/07/16 06:50:24;;;;;;;;;;;;;;;14.56;87.04;100887.09;6160957;23;1364;-85
2022/07/16 06:52:49;;;;;;;;;;;;;;;14.55;86.54;100883.50;6161370;23;862;-86
2022/07/16 06:55:14;;;;;;;;;;;;;;;14.61;86.71;100887.84;6160984;23;1172;-85
2022/07/16 06:57:39;;;;;;;;;;;;;;;14.63;86.88;100891.09;6159397;23;1265;-86
2022/07/16 07:00:05;;;;;;;;;;;;;;;14.66;87.36;100887.75;6159623;23;940;-88
2022/07/16 07:02:30;;;;;;;;;;;;;;;14.78;86.33;100887.31;6158746;23;1884;-87
2022/07/16 07:04:55;;;;;;;;;;;;;;;14.79;85.21;100893.66;6159681;23;1199;-86
2022/07/16 07:07:20;;;;;;;;;;;;;;;14.89;86.27;100885.19;6159096;23;1017;-85
2022/07/16 07:09:45;;;;;;;;;;;;;;;15.04;86.18;100891.31;6158761;23;1072;-87
2022/07/16 07:12:11;;;;;;;;;;;;;;;15.09;85.88;100893.16;6158188;23;1190;-86
2022/07/16 07:14:36;;;;;;;;;;;;;;;15.00;85.20;100901.28;6161426;23;1281;-87
2022/07/16 07:17:01;;;;;;;;;;;;;;;14.99;85.23;100901.59;6162068;23;1315;-86
2022/07/16 07:19:26;;;;;;;;;;;;;;;14.95;85.47;100909.66;6158046;23;1048;-86
2022/07/16 07:21:51;;;;;;;;;;;;;;;14.89;86.98;100918.28;6161899;23;1892;-87
2022/07/16 07:24:17;;;;;;;;;;;;;;;14.96;87.16;100919.56;6160056;23;1255;-85
2022/07/16 07:26:42;;;;;;;;;;;;;;;14.88;85.88;100931.28;6159919;23;1038;-87
2022/07/16 07:29:07;;;;;;;;;;;;;;;14.92;86.03;100926.78;6162935;23;1041;-85
2022/07/16 07:31:32;;;;;;;;;;;;;;;15.08;86.84;100930.13;6163564;23;944;-85
2022/07/16 07:33:57;;;;;;;;;;;;;;;15.23;86.75;100927.09;6162604;23;1263;-86
2022/07/16 07:36:22;;;;;;;;;;;;;;;15.17;85.65;100931.06;6160752;23;1024;-85
2022/07/16 07:38:47;;;;;;;;;;;;;;;15.28;85.38;100928.97;6158732;23;1382;-85
2022/07/16 07:41:12;;;;;;;;;;;;;;;15.42;85.30;100930.66;6157203;23;874;-85
2022/07/16 07:43:38;;;;;;;;;;;;;;;15.45;85.39;100927.28;6160111;23;1901;-88
2022/07/16 07:46:03;;;;;;;;;;;;;;;15.46;84.54;100931.69;6160294;23;1326;-86
2022/07/16 07:48:28;;;;;;;;;;;;;;;15.45;84.80;100930.06;6159949;23;969;-87
2022/07/16 07:50:53;;;;;;;;;;;;;;;15.33;84.39;100935.22;6163530;23;1052;-85
2022/07/16 07:53:18;;;;;;;;;;;;;;;15.24;84.02;100934.25;6159580;23;1103;-87
2022/07/16 07:55:44;;;;;;;;;;;;;;;15.30;83.26;100938.59;6157245;23;1274;-87
2022/07/16 07:58:09;;;;;;;;;;;;;;;15.42;83.98;100943.63;6157550;23;1270;-87
2022/07/16 08:00:35;;;;;;;;;;;;;;;15.58;82.43;100938.69;6158210;23;1200;-87
2022/07/16 08:03:00;;;;;;;;;;;;;;;15.57;82.12;100937.06;6157659;23;1949;-86
2022/07/16 08:05:25;;;;;;;;;;;;;;;15.61;82.08;100938.09;6159668;23;1285;-86
2022/07/16 08:07:51;;;;;;;;;;;;;;;15.85;82.20;100930.44;6162470;23;1162;-86
2022/07/16 08:10:16;;;;;;;;;;;;;;;16.06;81.54;100940.00;6156791;23;1298;-86
2022/07/16 08:12:41;;;;;;;;;;;;;;;16.07;81.39;100949.91;6159949;23;790;-87
2022/07/16 08:15:08;;;;;;;;;;;;;;;16.04;78.64;100942.25;6148926;23;1738;-85
2022/07/16 08:17:33;;;;;;;;;;;;;;;16.18;76.84;100945.00;6132603;23;1449;-85
2022/07/16 08:19:58;;;;;;;;;;;;;;;16.26;75.06;100945.09;6132124;23;1000;-85
2022/07/16 08:22:24;;;;;;;;;;;;;;;16.14;76.82;100944.81;6132932;23;1921;-86
2022/07/16 08:27:33;;;;;;;;;;;;;;;16.13;75.83;100953.38;6158138;23;620;-86
2022/07/16 08:29:58;;;;;;;;;;;;;;;16.23;73.94;100965.06;6131695;23;1029;-86
2022/07/16 08:32:23;;;;;;;;;;;;;;;16.26;73.99;100945.09;6131548;23;1048;-87
2022/07/16 08:34:50;;;;;;;;;;;;;;;16.49;73.80;100942.44;6157545;23;1200;-85
2022/07/16 08:37:15;;;;;;;;;;;;;;;16.64;71.38;100939.34;6132464;23;1319;-87
2022/07/16 08:39:42;;;;;;;;;;;;;;;16.65;72.55;100941.00;6130627;23;1146;-87
2022/07/16 08:42:08;;;;;;;;;;;;;;;16.51;69.78;100949.25;6157556;23;1897;-86
2022/07/16 08:44:34;;;;;;;;;;;;;;;16.39;71.13;100953.69;6158398;23;1248;-86
2022/07/16 08:47:00;;;;;;;;;;;;;;;16.30;70.01;100959.13;6130773;23;1336;-86
2022/07/16 08:49:25;;;;;;;;;;;;;;;16.21;70.75;100970.06;6135895;23;1252;-85
2022/07/16 08:51:52;;;;;;;;;;;;;;;16.13;71.56;100970.78;6158659;23;1004;-86
2022/07/16 08:54:21;;;;;;;;;;;;;;;16.09;72.57;100971.69;6132449;23;1283;-85
2022/07/16 08:56:48;;;;;;;;;;;;;;;16.11;74.09;100973.03;6133844;23;1358;-86
2022/07/16 08:59:13;;;;;;;;;;;;;;;16.21;73.52;100981.13;6133763;23;1217;-84
2022/07/16 09:01:39;;;;;;;;;;;;;;;16.46;71.74;100981.72;6133824;23;1857;-85
2022/07/16 09:04:04;;;;;;;;;;;;;;;16.70;70.57;100976.81;6131035;23;1334;-85
2022/07/16 09:06:30;;;;;;;;;;;;;;;16.71;70.85;100974.88;6161330;23;818;-86
2022/07/16 09:08:55;;;;;;;;;;;;;;;16.76;71.45;100970.03;6133038;23;1220;-85
2022/07/16 09:11:26;;;;;;;;;;;;;;;16.83;70.22;100969.63;6132608;23;1220;-85
2022/07/16 09:13:58;;;;;;;;;;;;;;;16.79;71.65;100974.13;6131803;23;1295;-85
2022/07/16 09:16:50;;;;;;;;;;;;;;;16.82;68.86;100974.34;6161635;23;952;-85
2022/07/16 09:19:16;;;;;;;;;;;;;;;17.10;69.09;100965.97;6157306;23;967;-86
2022/07/16 09:22:00;;;;;;;;;;;;;;;17.08;67.84;100973.75;6161223;23;1928;-87
2022/07/16 09:24:31;;;;;;;;;;;;;;;17.11;66.53;100973.09;6163904;23;1216;-85
2022/07/16 09:27:15;;;;;;;;;;;;;;;17.15;68.14;100974.13;6159884;23;1176;-85
2022/07/16 09:29:45;;;;;;;;;;;;;;;17.18;67.31;100979.06;6156171;23;1400;-84
2022/07/16 09:32:11;;;;;;;;;;;;;;;17.21;65.53;100986.72;6155122;23;1212;-84
2022/07/16 09:34:36;;;;;;;;;;;;;;;17.17;65.50;100985.72;6153367;23;1326;-85
2022/07/16 09:37:02;;;;;;;;;;;;;;;17.27;64.30;100990.97;6154880;23;1156;-83
2022/07/16 09:39:28;;;;;;;;;;;;;;;17.37;65.47;100983.25;6157125;23;992;-85
2022/07/16 09:41:53;;;;;;;;;;;;;;;17.53;63.83;100996.72;6155879;23;1889;-84
2022/07/16 09:44:20;;;;;;;;;;;;;;;17.49;64.13;100979.94;6153658;23;1287;-84
2022/07/16 09:47:04;;;;;;;;;;;;;;;17.55;64.47;100984.19;6158436;23;747;-85
2022/07/16 09:49:30;;;;;;;;;;;;;;;17.55;61.65;101008.28;6156051;23;1382;-85
2022/07/16 09:51:56;;;;;;;;;;;;;;;17.52;60.65;100984.84;6155110;23;1304;-85
2022/07/16 09:54:32;;;;;;;;;;;;;;;17.61;62.38;100985.69;6152551;23;1203;-85
2022/07/16 09:57:08;;;;;;;;;;;;;;;17.64;63.05;100989.81;6155072;23;1354;-85
2022/07/16 09:59:34;;;;;;;;;;;;;;;17.64;62.90;100978.75;6157583;23;1184;-86
2022/07/16 10:02:00;;;;;;;;;;;;;;;17.63;64.58;100975.16;6159744;23;1881;-84
2022/07/16 10:04:25;;;;;;;;;;;;;;;17.69;63.63;100984.97;6154979;23;1254;-84
2022/07/16 10:06:51;;;;;;;;;;;;;;;17.74;60.47;100972.97;6159353;23;1040;-85
2022/07/16 10:09:17;;;;;;;;;;;;;;;17.71;61.98;100971.63;6155094;23;1320;-84
2022/07/16 10:11:43;;;;;;;;;;;;;;;17.76;59.67;100979.81;6156374;23;1318;-85
2022/07/16 10:14:08;;;;;;;;;;;;;;;17.80;58.09;100980.00;6153640;23;1275;-88
2022/07/16 10:16:38;;;;;;;;;;;;;;;17.82;59.33;100987.97;6156436;23;830;-88
2022/07/16 10:19:03;;;;;;;;;;;;;;;17.91;61.01;100975.00;6155740;23;1179;-83
2022/07/16 10:21:28;;;;;;;;;;;;;;;18.00;59.15;100986.94;6156009;23;1923;-83
2022/07/16 10:24:04;;;;;;;;;;;;;;;17.91;59.34;100977.78;6151960;23;1161;-86
2022/07/16 10:26:30;;;;;;;;;;;;;;;18.02;60.80;100990.22;6157333;23;1287;-85
2022/07/16 10:28:55;;;;;;;;;;;;;;;18.11;55.80;100991.91;6161274;23;882;-84
2022/07/16 10:31:40;;;;;;;;;;;;;;;18.14;58.71;100988.47;6160305;23;707;-84
2022/07/16 10:34:15;;;;;;;;;;;;;;;18.28;55.48;100999.47;6157293;23;1263;-83
2022/07/16 10:36:58;;;;;;;;;;;;;;;18.39;53.99;100983.34;6159818;23;1212;-84
2022/07/16 10:39:25;;;;;;;;;;;;;;;18.58;52.41;100992.25;6160964;23;1264;-84
2022/07/16 10:41:58;;;;;;;;;;;;;;;18.70;56.37;100999.97;6161567;23;1892;-85
2022/07/16 10:44:41;;;;;;;;;;;;;;;18.76;53.48;100993.13;6162313;23;1188;-84
2022/07/16 10:47:07;;;;;;;;;;;;;;;18.80;52.08;101010.72;6161918;23;1237;-85
2022/07/16 10:49:32;;;;;;;;;;;;;;;18.43;56.96;101018.44;6161561;23;1160;-84
2022/07/16 10:51:57;;;;;;;;;;;;;;;18.07;60.03;101018.59;6160469;23;1239;-84
2022/07/16 10:54:48;;;;;;;;;;;;;;;17.79;59.34;101011.56;6160529;23;1308;-84
2022/07/16 10:57:14;;;;;;;;;;;;;;;17.95;59.41;101017.56;6107440;23;1330;-84
2022/07/16 10:59:40;;;;;;;;;;;;;;;18.04;58.97;101015.63;6162839;23;1334;-84
2022/07/16 11:02:07;;;;;;;;;;;;;;;18.20;59.19;101018.81;6161062;23;1924;-85
2022/07/16 11:04:33;;;;;;;;;;;;;;;18.26;57.90;101023.09;6164467;23;1269;-84
2022/07/16 11:07:01;;;;;;;;;;;;;;;18.38;58.03;101015.78;6163838;23;1129;-84
2022/07/16 11:09:31;;;;;;;;;;;;;;;18.39;54.20;101027.69;6164735;23;1367;-84
2022/07/16 11:12:06;;;;;;;;;;;;;;;18.35;56.64;101013.69;6164622;23;864;-85
2022/07/16 11:14:32;;;;;;;;;;;;;;;18.50;55.37;101029.06;6164470;23;1405;-84
2022/07/16 11:16:57;;;;;;;;;;;;;;;18.68;51.73;101046.59;6167862;23;1333;-85
2022/07/16 11:19:22;;;;;;;;;;;;;;;18.64;53.31;101021.44;6162296;23;988;-84
2022/07/16 11:21:51;;;;;;;;;;;;;;;18.72;52.36;101020.66;6159481;23;1895;-84
2022/07/16 11:24:17;;;;;;;;;;;;;;;18.84;51.55;101008.94;6157699;23;1330;-86
2022/07/16 11:26:42;;;;;;;;;;;;;;;18.94;50.08;101021.69;6161893;23;885;-84
2022/07/16 11:29:07;;;;;;;;;;;;;;;18.98;51.65;101012.38;6156071;23;996;-85
2022/07/16 11:31:33;;;;;;;;;;;;;;;19.08;49.47;101016.81;6171132;23;1341;-84
2022/07/16 11:34:09;;;;;;;;;;;;;;;19.27;47.04;101032.03;6177370;23;1343;-86
2022/07/16 11:36:39;;;;;;;;;;;;;;;19.25;48.74;101031.53;6180185;23;984;-85
2022/07/16 11:39:05;;;;;;;;;;;;;;;18.96;51.38;101039.66;6179264;23;1223;-85
2022/07/16 11:41:31;;;;;;;;;;;;;;;18.79;53.07;101047.94;6179478;23;1893;-86
2022/07/16 11:43:56;;;;;;;;;;;;;;;18.86;54.99;101045.50;6174923;23;1153;-85
2022/07/16 11:46:25;;;;;;;;;;;;;;;18.80;53.14;101050.38;6175951;23;1210;-85
2022/07/16 11:48:51;;;;;;;;;;;;;;;18.84;55.88;101048.59;6175570;23;980;-85
2022/07/16 11:51:16;;;;;;;;;;;;;;;18.91;54.42;101056.44;6173933;23;1304;-85
2022/07/16 11:53:45;;;;;;;;;;;;;;;18.93;54.02;101054.16;6172065;23;1295;-85
2022/07/16 11:56:14;;;;;;;;;;;;;;;19.00;52.47;101048.13;6171597;23;1278;-85
2022/07/16 11:58:39;;;;;;;;;;;;;;;19.16;53.74;101049.31;6169391;23;1252;-85
2022/07/16 12:01:04;;;;;;;;;;;;;;;19.33;51.72;101052.09;6171187;23;983;-86
2022/07/16 12:03:29;;;;;;;;;;;;;;;19.37;52.06;101057.81;6171277;23;1853;-85
2022/07/16 12:06:01;;;;;;;;;;;;;;;19.44;50.48;101058.16;6167335;23;1290;-84
2022/07/16 12:08:27;;;;;;;;;;;;;;;19.44;52.07;101069.25;6166267;23;1235;-86
2022/07/16 12:11:05;;;;;;;;;;;;;;;19.51;51.46;101064.88;6170138;23;1208;-85
2022/07/16 12:13:30;;;;;;;;;;;;;;;19.51;50.36;101064.06;6169120;23;1358;-85
2022/07/16 12:16:01;;;;;;;;;;;;;;;19.36;51.55;101070.06;6164981;23;1157;-84
2022/07/16 12:18:27;;;;;;;;;;;;;;;19.03;51.03;101081.63;6165053;23;814;-84
2022/07/16 12:20:53;;;;;;;;;;;;;;;18.89;52.52;101073.41;6161899;23;1251;-84
2022/07/16 12:23:32;;;;;;;;;;;;;;;19.08;50.58;101077.84;6165436;23;1972;-85
2022/07/16 12:26:06;;;;;;;;;;;;;;;19.23;52.56;101080.16;6169043;23;1307;-85
2022/07/16 12:28:31;;;;;;;;;;;;;;;19.30;49.43;101093.59;6167831;23;1180;-86
2022/07/16 12:30:57;;;;;;;;;;;;;;;19.33;49.11;101087.34;6168228;23;1232;-85
2022/07/16 12:33:24;;;;;;;;;;;;;;;19.39;48.19;101105.53;6168304;23;992;-85
2022/07/16 12:35:55;;;;;;;;;;;;;;;19.49;49.74;101102.44;6169172;23;1341;-86
2022/07/16 12:38:39;;;;;;;;;;;;;;;19.41;48.41;101094.88;6169820;23;981;-85
2022/07/16 12:41:09;;;;;;;;;;;;;;;19.36;49.33;101090.31;6170831;23;849;-85
2022/07/16 12:43:34;;;;;;;;;;;;;;;19.41;48.47;101092.09;6166957;23;1897;-86
2022/07/16 12:46:00;;;;;;;;;;;;;;;19.46;48.90;101094.75;6169043;23;1302;-85
2022/07/16 12:48:25;;;;;;;;;;;;;;;19.51;48.38;101100.16;6168336;23;1168;-85
2022/07/16 12:50:50;;;;;;;;;;;;;;;19.62;49.01;101105.06;6168521;23;1374;-85